createdAt,value
2022-09-05T00:14:35.253Z,1382.86945
2022-09-05T00:31:07.059Z,1392.93191
2022-09-05T00:46:54.297Z,1398.7479
2022-09-05T01:01:56.367Z,1374.35949
2022-09-05T01:16:58.366Z,1316.30699
2022-09-05T01:32:00.335Z,1247.67276
2022-09-05T01:47:02.262Z,1340.00051
2022-09-05T02:02:06.237Z,1436.22774
2022-09-05T02:17:08.264Z,1459.6955
2022-09-05T02:32:25.670Z,1450.21697
2022-09-05T02:47:28.248Z,1436.22774
2022-09-05T03:02:30.283Z,1439.31308
2022-09-05T03:17:32.279Z,1428.57194
2022-09-05T03:32:40.353Z,1413.50262
2022-09-05T03:47:44.205Z,1414.99523
2022-09-05T04:06:44.228Z,1413.50262
2022-09-05T04:23:25.007Z,1381.44381
2022-09-05T04:38:27.221Z,1342.68588
2022-09-05T04:53:29.149Z,1329.36559
2022-09-05T05:08:38.106Z,1344.03261
2022-09-05T05:23:41.405Z,1515.8376
2022-09-05T05:38:43.336Z,1764.31913
2022-09-05T05:53:46.964Z,1720.15454
2022-09-05T06:13:03.590Z,1870.20287
2022-09-05T06:30:05.320Z,1973.49093
2022-09-05T06:45:09.050Z,1888.65448
2022-09-05T07:00:30.025Z,1863.70008
2022-09-05T07:15:31.960Z,1900.70972
2022-09-05T07:30:33.889Z,1989.60703
2022-09-05T07:45:35.912Z,1961.93315
2022-09-05T08:00:39.849Z,2013.52417
2022-09-05T08:16:13.190Z,1950.50996
2022-09-05T08:31:16.149Z,2022.64201
2022-09-05T08:46:47.035Z,2045.80203
2022-09-05T09:02:14.524Z,2071.09787
2022-09-05T09:17:48.722Z,2071.09787
2022-09-05T09:32:50.686Z,2048.93016
2022-09-05T09:47:52.695Z,2028.76659
2022-09-05T10:09:38.347Z,2038.02331
2022-09-05T10:26:17.752Z,2050.49782
2022-09-05T10:41:22.370Z,2053.64035
2022-09-05T10:56:26.116Z,2033.38442
2022-09-05T11:11:34.671Z,1991.0852
2022-09-05T11:26:37.278Z,1989.60703
2022-09-05T11:41:39.289Z,1956.20488
2022-09-05T11:56:44.058Z,1960.49794
2022-09-05T12:11:47.726Z,1936.41668
2022-09-05T12:27:39.807Z,1914.28621
2022-09-05T12:43:38.557Z,1895.33289
2022-09-05T13:03:00.882Z,1908.83241
2022-09-05T13:18:12.702Z,1902.0587
2022-09-05T13:38:15.619Z,1885.99628
2022-09-05T13:53:29.307Z,1878.06637
2022-09-05T14:08:38.354Z,1858.53032
2022-09-05T14:23:40.288Z,1849.55191
2022-09-05T14:38:42.323Z,1847.00256
2022-09-05T14:54:00.474Z,1828.10418
2022-09-05T15:12:17.099Z,1824.37082
2022-09-05T15:27:27.605Z,1824.37082
2022-09-05T15:42:29.466Z,1829.35203
2022-09-05T15:57:31.306Z,1830.60159
2022-09-05T16:12:33.237Z,1847.00256
2022-09-05T16:27:35.117Z,1813.26166
2022-09-05T16:42:46.974Z,1816.94965
2022-09-05T16:57:49.481Z,1777.18882
2022-09-05T17:12:52.091Z,1650.2468
2022-09-05T17:29:26.024Z,1410.52683
2022-09-05T17:44:39.591Z,1330.68571
2022-09-05T17:59:44.130Z,1406.08656
2022-09-05T18:14:52.554Z,1377.18448
2022-09-05T18:30:03.861Z,2098.66926
2022-09-05T18:45:14.453Z,2451.96758
2022-09-05T19:00:16.856Z,2688.06471
2022-09-05T19:15:18.673Z,2997.76335
2022-09-05T19:37:06.993Z,2928.96228
2022-09-05T19:52:20.925Z,2951.54238
2022-09-05T20:07:22.852Z,2500.00051
2022-09-05T20:22:47.788Z,2240.80318
2022-09-05T20:43:15.404Z,2596.89974
2022-09-05T20:58:31.402Z,2785.86331
2022-09-05T21:13:33.761Z,2635.20209
2022-09-05T21:28:37.020Z,2463.23581
2022-09-05T21:47:34.989Z,3035.10807
2022-09-05T22:02:47.803Z,2971.1757
2022-09-05T22:17:49.757Z,3350.00049
2022-09-05T22:32:51.684Z,3232.8111
2022-09-05T22:47:53.593Z,3268.29317
2022-09-05T23:02:55.517Z,3225.03057
2022-09-05T23:17:57.490Z,3449.16394
2022-09-05T23:32:59.429Z,3236.71546
2022-09-05T23:48:01.348Z,3002.8016
